sensor_id;sensor_type;location;lat;lon;timestamp;temperature;humidity
53264;DHT22;39153;52.680;6.172;2023-04-25T00:02:16;6.10;99.90
53264;DHT22;39153;52.680;6.172;2023-04-25T00:04:41;6.30;99.90
53264;DHT22;39153;52.680;6.172;2023-04-25T00:07:07;6.00;99.90
53264;DHT22;39153;52.680;6.172;2023-04-25T00:09:33;5.90;99.90
53264;DHT22;39153;52.680;6.172;2023-04-25T00:11:58;6.10;99.90
53264;DHT22;39153;52.680;6.172;2023-04-25T00:14:24;5.90;99.90
53264;DHT22;39153;52.680;6.172;2023-04-25T00:16:50;6.00;99.90
53264;DHT22;39153;52.680;6.172;2023-04-25T00:19:17;5.90;99.90
53264;DHT22;39153;52.680;6.172;2023-04-25T00:21:43;5.80;99.90
53264;DHT22;39153;52.680;6.172;2023-04-25T00:24:12;5.90;99.90
53264;DHT22;39153;52.680;6.172;2023-04-25T00:26:37;5.80;99.90
53264;DHT22;39153;52.680;6.172;2023-04-25T00:29:03;5.80;99.90
53264;DHT22;39153;52.680;6.172;2023-04-25T00:31:29;5.80;99.90
53264;DHT22;39153;52.680;6.172;2023-04-25T00:33:56;5.70;99.90
53264;DHT22;39153;52.680;6.172;2023-04-25T00:36:21;5.70;99.90
53264;DHT22;39153;52.680;6.172;2023-04-25T00:38:47;5.60;99.90
53264;DHT22;39153;52.680;6.172;2023-04-25T00:41:13;5.70;99.90
53264;DHT22;39153;52.680;6.172;2023-04-25T00:43:39;5.70;99.90
53264;DHT22;39153;52.680;6.172;2023-04-25T00:46:05;5.70;99.90
53264;DHT22;39153;52.680;6.172;2023-04-25T00:48:31;5.70;99.90
53264;DHT22;39153;52.680;6.172;2023-04-25T00:50:58;5.70;99.90
53264;DHT22;39153;52.680;6.172;2023-04-25T00:53:25;5.70;99.90
53264;DHT22;39153;52.680;6.172;2023-04-25T00:55:52;5.70;99.90
53264;DHT22;39153;52.680;6.172;2023-04-25T00:58:19;5.80;99.90
53264;DHT22;39153;52.680;6.172;2023-04-25T01:00:46;5.60;99.90
53264;DHT22;39153;52.680;6.172;2023-04-25T01:03:16;5.60;99.90
53264;DHT22;39153;52.680;6.172;2023-04-25T01:05:43;5.80;99.90
53264;DHT22;39153;52.680;6.172;2023-04-25T01:08:09;5.50;99.90
53264;DHT22;39153;52.680;6.172;2023-04-25T01:10:36;5.60;99.90
53264;DHT22;39153;52.680;6.172;2023-04-25T01:13:02;5.60;99.90
53264;DHT22;39153;52.680;6.172;2023-04-25T01:15:28;5.60;99.90
53264;DHT22;39153;52.680;6.172;2023-04-25T01:17:54;5.70;99.90
53264;DHT22;39153;52.680;6.172;2023-04-25T01:20:24;5.70;99.90
53264;DHT22;39153;52.680;6.172;2023-04-25T01:22:53;5.70;99.90
53264;DHT22;39153;52.680;6.172;2023-04-25T01:25:21;5.70;99.90
53264;DHT22;39153;52.680;6.172;2023-04-25T01:27:47;5.80;99.90
53264;DHT22;39153;52.680;6.172;2023-04-25T01:30:13;5.60;99.90
53264;DHT22;39153;52.680;6.172;2023-04-25T01:32:39;5.60;99.90
53264;DHT22;39153;52.680;6.172;2023-04-25T01:35:08;5.70;99.90
53264;DHT22;39153;52.680;6.172;2023-04-25T01:37:41;5.70;99.90
53264;DHT22;39153;52.680;6.172;2023-04-25T01:40:09;5.70;99.90
53264;DHT22;39153;52.680;6.172;2023-04-25T01:42:37;5.70;99.90
53264;DHT22;39153;52.680;6.172;2023-04-25T01:45:04;5.70;99.90
53264;DHT22;39153;52.680;6.172;2023-04-25T01:47:31;5.70;99.90
53264;DHT22;39153;52.680;6.172;2023-04-25T01:49:56;5.80;99.90
53264;DHT22;39153;52.680;6.172;2023-04-25T01:52:22;5.70;99.90
53264;DHT22;39153;52.680;6.172;2023-04-25T01:54:49;5.80;99.90
53264;DHT22;39153;52.680;6.172;2023-04-25T01:57:15;5.80;99.90
53264;DHT22;39153;52.680;6.172;2023-04-25T01:59:43;5.80;99.90
53264;DHT22;39153;52.680;6.172;2023-04-25T02:02:09;5.90;99.90
53264;DHT22;39153;52.680;6.172;2023-04-25T02:04:35;5.90;99.90
53264;DHT22;39153;52.680;6.172;2023-04-25T02:07:00;5.80;99.90
53264;DHT22;39153;52.680;6.172;2023-04-25T02:09:26;5.80;99.90
53264;DHT22;39153;52.680;6.172;2023-04-25T02:11:52;5.80;99.90
53264;DHT22;39153;52.680;6.172;2023-04-25T02:14:18;5.90;99.90
53264;DHT22;39153;52.680;6.172;2023-04-25T02:16:44;5.80;99.90
53264;DHT22;39153;52.680;6.172;2023-04-25T02:19:10;5.80;99.90
53264;DHT22;39153;52.680;6.172;2023-04-25T02:21:36;5.90;99.90
53264;DHT22;39153;52.680;6.172;2023-04-25T02:24:02;5.80;99.90
53264;DHT22;39153;52.680;6.172;2023-04-25T02:26:28;5.80;99.90
53264;DHT22;39153;52.680;6.172;2023-04-25T02:28:56;5.80;99.90
53264;DHT22;39153;52.680;6.172;2023-04-25T02:31:21;5.80;99.90
53264;DHT22;39153;52.680;6.172;2023-04-25T02:33:48;5.80;99.90
53264;DHT22;39153;52.680;6.172;2023-04-25T02:36:13;5.80;99.90
53264;DHT22;39153;52.680;6.172;2023-04-25T02:38:39;5.90;99.90
53264;DHT22;39153;52.680;6.172;2023-04-25T02:41:05;5.70;99.90
53264;DHT22;39153;52.680;6.172;2023-04-25T02:43:30;5.70;99.90
53264;DHT22;39153;52.680;6.172;2023-04-25T02:45:56;5.70;99.90
53264;DHT22;39153;52.680;6.172;2023-04-25T02:48:22;5.70;99.90
53264;DHT22;39153;52.680;6.172;2023-04-25T02:50:47;5.70;99.90
53264;DHT22;39153;52.680;6.172;2023-04-25T02:53:13;5.70;99.90
53264;DHT22;39153;52.680;6.172;2023-04-25T02:55:39;5.70;99.90
53264;DHT22;39153;52.680;6.172;2023-04-25T02:58:05;5.80;99.90
53264;DHT22;39153;52.680;6.172;2023-04-25T03:00:30;5.70;99.90
53264;DHT22;39153;52.680;6.172;2023-04-25T03:02:56;5.70;99.90
53264;DHT22;39153;52.680;6.172;2023-04-25T03:05:22;5.70;99.90
53264;DHT22;39153;52.680;6.172;2023-04-25T03:07:48;5.70;99.90
53264;DHT22;39153;52.680;6.172;2023-04-25T03:10:13;5.70;99.90
53264;DHT22;39153;52.680;6.172;2023-04-25T03:12:39;5.70;99.90
53264;DHT22;39153;52.680;6.172;2023-04-25T03:15:05;5.70;99.90
53264;DHT22;39153;52.680;6.172;2023-04-25T03:17:31;5.70;99.90
53264;DHT22;39153;52.680;6.172;2023-04-25T03:19:57;5.60;99.90
53264;DHT22;39153;52.680;6.172;2023-04-25T03:22:23;5.60;99.90
53264;DHT22;39153;52.680;6.172;2023-04-25T03:24:50;5.60;99.90
53264;DHT22;39153;52.680;6.172;2023-04-25T03:27:16;5.60;99.90
53264;DHT22;39153;52.680;6.172;2023-04-25T03:29:41;5.60;99.90
53264;DHT22;39153;52.680;6.172;2023-04-25T03:32:07;5.60;99.90
53264;DHT22;39153;52.680;6.172;2023-04-25T03:34:33;5.60;99.90
53264;DHT22;39153;52.680;6.172;2023-04-25T03:36:59;5.60;99.90
53264;DHT22;39153;52.680;6.172;2023-04-25T03:39:25;5.60;99.90
53264;DHT22;39153;52.680;6.172;2023-04-25T03:41:51;5.60;99.90
53264;DHT22;39153;52.680;6.172;2023-04-25T03:44:16;5.50;99.90
53264;DHT22;39153;52.680;6.172;2023-04-25T03:46:42;5.50;99.90
53264;DHT22;39153;52.680;6.172;2023-04-25T03:49:08;5.40;99.90
53264;DHT22;39153;52.680;6.172;2023-04-25T03:51:34;5.50;99.90
53264;DHT22;39153;52.680;6.172;2023-04-25T03:53:59;5.40;99.90
53264;DHT22;39153;52.680;6.172;2023-04-25T03:56:25;5.40;99.90
53264;DHT22;39153;52.680;6.172;2023-04-25T03:58:51;5.40;99.90
53264;DHT22;39153;52.680;6.172;2023-04-25T04:01:16;5.40;99.90
53264;DHT22;39153;52.680;6.172;2023-04-25T04:03:42;5.40;99.90
53264;DHT22;39153;52.680;6.172;2023-04-25T04:06:08;5.40;99.90
53264;DHT22;39153;52.680;6.172;2023-04-25T04:08:34;5.40;99.90
53264;DHT22;39153;52.680;6.172;2023-04-25T04:11:00;5.30;99.90
53264;DHT22;39153;52.680;6.172;2023-04-25T04:13:27;5.40;99.90
53264;DHT22;39153;52.680;6.172;2023-04-25T04:15:53;5.30;99.90
53264;DHT22;39153;52.680;6.172;2023-04-25T04:18:19;5.30;99.90
53264;DHT22;39153;52.680;6.172;2023-04-25T04:20:45;5.40;99.90
53264;DHT22;39153;52.680;6.172;2023-04-25T04:23:11;5.40;99.90
53264;DHT22;39153;52.680;6.172;2023-04-25T04:25:37;5.30;99.90
53264;DHT22;39153;52.680;6.172;2023-04-25T04:28:02;5.30;99.90
53264;DHT22;39153;52.680;6.172;2023-04-25T04:30:28;5.30;99.90
53264;DHT22;39153;52.680;6.172;2023-04-25T04:32:58;5.30;99.90
53264;DHT22;39153;52.680;6.172;2023-04-25T04:35:26;5.30;99.90
53264;DHT22;39153;52.680;6.172;2023-04-25T04:37:51;5.30;99.90
53264;DHT22;39153;52.680;6.172;2023-04-25T04:40:17;5.20;99.90
53264;DHT22;39153;52.680;6.172;2023-04-25T04:42:44;5.20;99.90
53264;DHT22;39153;52.680;6.172;2023-04-25T04:45:11;5.20;99.90
53264;DHT22;39153;52.680;6.172;2023-04-25T04:47:38;5.20;99.90
53264;DHT22;39153;52.680;6.172;2023-04-25T04:50:06;5.20;99.90
53264;DHT22;39153;52.680;6.172;2023-04-25T04:52:37;5.10;99.90
53264;DHT22;39153;52.680;6.172;2023-04-25T04:55:04;5.20;99.90
53264;DHT22;39153;52.680;6.172;2023-04-25T04:57:29;5.10;99.90
53264;DHT22;39153;52.680;6.172;2023-04-25T04:59:56;5.10;99.90
53264;DHT22;39153;52.680;6.172;2023-04-25T05:02:22;5.10;99.90
53264;DHT22;39153;52.680;6.172;2023-04-25T05:04:48;5.10;99.90
53264;DHT22;39153;52.680;6.172;2023-04-25T05:07:14;5.20;99.90
53264;DHT22;39153;52.680;6.172;2023-04-25T05:09:40;5.10;99.90
53264;DHT22;39153;52.680;6.172;2023-04-25T05:12:05;5.10;99.90
53264;DHT22;39153;52.680;6.172;2023-04-25T05:14:31;5.10;99.90
53264;DHT22;39153;52.680;6.172;2023-04-25T05:16:57;5.10;99.90
53264;DHT22;39153;52.680;6.172;2023-04-25T05:19:23;5.10;99.90
53264;DHT22;39153;52.680;6.172;2023-04-25T05:21:50;5.10;99.90
53264;DHT22;39153;52.680;6.172;2023-04-25T05:24:16;5.10;99.90
53264;DHT22;39153;52.680;6.172;2023-04-25T05:26:41;5.00;99.90
53264;DHT22;39153;52.680;6.172;2023-04-25T05:29:07;5.10;99.90
53264;DHT22;39153;52.680;6.172;2023-04-25T05:31:33;5.00;99.90
53264;DHT22;39153;52.680;6.172;2023-04-25T05:33:58;5.00;99.90
53264;DHT22;39153;52.680;6.172;2023-04-25T05:36:24;5.10;99.90
53264;DHT22;39153;52.680;6.172;2023-04-25T05:38:51;5.20;99.90
53264;DHT22;39153;52.680;6.172;2023-04-25T05:41:16;5.30;99.90
53264;DHT22;39153;52.680;6.172;2023-04-25T05:43:42;5.40;99.90
53264;DHT22;39153;52.680;6.172;2023-04-25T05:46:12;5.50;99.90
53264;DHT22;39153;52.680;6.172;2023-04-25T05:48:40;5.60;99.90
53264;DHT22;39153;52.680;6.172;2023-04-25T05:51:05;5.70;99.90
53264;DHT22;39153;52.680;6.172;2023-04-25T05:53:31;5.70;99.90
53264;DHT22;39153;52.680;6.172;2023-04-25T05:55:56;5.80;99.90
53264;DHT22;39153;52.680;6.172;2023-04-25T05:58:22;5.70;99.90
53264;DHT22;39153;52.680;6.172;2023-04-25T06:00:48;5.80;99.90
53264;DHT22;39153;52.680;6.172;2023-04-25T06:03:14;5.70;99.90
53264;DHT22;39153;52.680;6.172;2023-04-25T06:05:43;5.70;99.90
53264;DHT22;39153;52.680;6.172;2023-04-25T06:08:09;5.70;99.90
53264;DHT22;39153;52.680;6.172;2023-04-25T06:10:36;6.30;99.90
53264;DHT22;39153;52.680;6.172;2023-04-25T06:13:02;5.60;99.90
53264;DHT22;39153;52.680;6.172;2023-04-25T06:15:28;5.60;99.90
53264;DHT22;39153;52.680;6.172;2023-04-25T06:17:54;5.60;99.90
53264;DHT22;39153;52.680;6.172;2023-04-25T06:20:20;5.60;99.90
53264;DHT22;39153;52.680;6.172;2023-04-25T06:22:49;5.60;99.90
53264;DHT22;39153;52.680;6.172;2023-04-25T06:25:15;5.70;99.90
53264;DHT22;39153;52.680;6.172;2023-04-25T06:27:41;5.50;99.90
53264;DHT22;39153;52.680;6.172;2023-04-25T06:30:07;5.50;99.90
53264;DHT22;39153;52.680;6.172;2023-04-25T06:32:32;5.60;99.90
53264;DHT22;39153;52.680;6.172;2023-04-25T06:35:00;5.70;99.90
53264;DHT22;39153;52.680;6.172;2023-04-25T06:37:26;5.70;99.90
53264;DHT22;39153;52.680;6.172;2023-04-25T06:39:51;5.80;99.90
53264;DHT22;39153;52.680;6.172;2023-04-25T06:42:17;6.10;99.90
53264;DHT22;39153;52.680;6.172;2023-04-25T06:44:43;6.20;99.90
53264;DHT22;39153;52.680;6.172;2023-04-25T06:47:09;6.20;99.90
53264;DHT22;39153;52.680;6.172;2023-04-25T06:49:34;6.30;99.90
53264;DHT22;39153;52.680;6.172;2023-04-25T06:52:00;6.50;99.90
53264;DHT22;39153;52.680;6.172;2023-04-25T06:54:26;6.70;99.90
53264;DHT22;39153;52.680;6.172;2023-04-25T06:56:54;6.80;99.90
53264;DHT22;39153;52.680;6.172;2023-04-25T06:59:20;7.00;99.90
53264;DHT22;39153;52.680;6.172;2023-04-25T07:01:45;6.90;99.90
53264;DHT22;39153;52.680;6.172;2023-04-25T07:04:11;6.90;99.90
53264;DHT22;39153;52.680;6.172;2023-04-25T07:06:37;7.00;99.90
53264;DHT22;39153;52.680;6.172;2023-04-25T07:09:08;6.90;99.90
53264;DHT22;39153;52.680;6.172;2023-04-25T07:11:35;6.90;99.90
53264;DHT22;39153;52.680;6.172;2023-04-25T07:14:01;6.90;99.90
53264;DHT22;39153;52.680;6.172;2023-04-25T07:16:27;6.90;99.90
53264;DHT22;39153;52.680;6.172;2023-04-25T07:18:53;6.90;99.90
53264;DHT22;39153;52.680;6.172;2023-04-25T07:21:19;6.90;99.90
53264;DHT22;39153;52.680;6.172;2023-04-25T07:23:45;7.00;99.90
53264;DHT22;39153;52.680;6.172;2023-04-25T07:26:10;7.00;99.90
53264;DHT22;39153;52.680;6.172;2023-04-25T07:28:36;7.00;99.90
53264;DHT22;39153;52.680;6.172;2023-04-25T07:31:02;7.00;99.90
53264;DHT22;39153;52.680;6.172;2023-04-25T07:33:28;7.00;99.90
53264;DHT22;39153;52.680;6.172;2023-04-25T07:35:55;7.00;99.90
53264;DHT22;39153;52.680;6.172;2023-04-25T07:38:21;7.00;99.90
53264;DHT22;39153;52.680;6.172;2023-04-25T07:40:50;7.00;99.90
53264;DHT22;39153;52.680;6.172;2023-04-25T07:43:15;7.00;99.90
53264;DHT22;39153;52.680;6.172;2023-04-25T07:45:45;7.00;99.90
53264;DHT22;39153;52.680;6.172;2023-04-25T07:48:15;7.00;99.90
53264;DHT22;39153;52.680;6.172;2023-04-25T07:50:41;7.00;99.90
53264;DHT22;39153;52.680;6.172;2023-04-25T07:53:07;7.10;99.90
53264;DHT22;39153;52.680;6.172;2023-04-25T07:55:32;7.30;99.90
53264;DHT22;39153;52.680;6.172;2023-04-25T07:57:58;7.40;99.90
53264;DHT22;39153;52.680;6.172;2023-04-25T08:00:24;7.40;99.90
53264;DHT22;39153;52.680;6.172;2023-04-25T08:02:49;7.50;99.90
53264;DHT22;39153;52.680;6.172;2023-04-25T08:05:16;7.70;99.90
53264;DHT22;39153;52.680;6.172;2023-04-25T08:07:42;7.80;99.90
53264;DHT22;39153;52.680;6.172;2023-04-25T08:10:09;7.80;99.90
53264;DHT22;39153;52.680;6.172;2023-04-25T08:12:35;7.70;99.90
53264;DHT22;39153;52.680;6.172;2023-04-25T08:15:00;7.50;99.90
53264;DHT22;39153;52.680;6.172;2023-04-25T08:17:26;7.30;99.90
53264;DHT22;39153;52.680;6.172;2023-04-25T08:19:52;7.10;99.90
53264;DHT22;39153;52.680;6.172;2023-04-25T08:22:18;6.90;99.90
53264;DHT22;39153;52.680;6.172;2023-04-25T08:24:44;6.90;99.90
53264;DHT22;39153;52.680;6.172;2023-04-25T08:27:09;7.00;99.90
53264;DHT22;39153;52.680;6.172;2023-04-25T08:29:35;6.90;99.90
53264;DHT22;39153;52.680;6.172;2023-04-25T08:32:01;7.00;99.90
53264;DHT22;39153;52.680;6.172;2023-04-25T08:34:26;7.10;99.90
53264;DHT22;39153;52.680;6.172;2023-04-25T08:36:52;7.00;99.90
53264;DHT22;39153;52.680;6.172;2023-04-25T08:39:18;7.10;99.90
53264;DHT22;39153;52.680;6.172;2023-04-25T08:41:44;7.10;99.90
53264;DHT22;39153;52.680;6.172;2023-04-25T08:44:11;7.10;99.90
53264;DHT22;39153;52.680;6.172;2023-04-25T08:46:40;7.20;99.90
53264;DHT22;39153;52.680;6.172;2023-04-25T08:49:07;7.30;99.90
53264;DHT22;39153;52.680;6.172;2023-04-25T08:51:37;7.50;99.90
53264;DHT22;39153;52.680;6.172;2023-04-25T08:54:11;7.70;99.90
53264;DHT22;39153;52.680;6.172;2023-04-25T08:56:42;7.90;99.90
53264;DHT22;39153;52.680;6.172;2023-04-25T08:59:11;8.00;99.90
53264;DHT22;39153;52.680;6.172;2023-04-25T09:01:36;8.20;99.90
53264;DHT22;39153;52.680;6.172;2023-04-25T09:04:02;8.40;99.90
53264;DHT22;39153;52.680;6.172;2023-04-25T09:06:31;8.60;99.90
53264;DHT22;39153;52.680;6.172;2023-04-25T09:09:05;8.90;99.90
53264;DHT22;39153;52.680;6.172;2023-04-25T09:11:32;9.10;99.90
53264;DHT22;39153;52.680;6.172;2023-04-25T09:19:26;9.10;99.90
53264;DHT22;39153;52.680;6.172;2023-04-25T09:21:58;9.00;99.90
53264;DHT22;39153;52.680;6.172;2023-04-25T09:24:38;8.90;99.90
53264;DHT22;39153;52.680;6.172;2023-04-25T09:27:09;8.70;99.90
53264;DHT22;39153;52.680;6.172;2023-04-25T09:29:37;8.70;99.90
53264;DHT22;39153;52.680;6.172;2023-04-25T09:32:23;8.90;99.90
53264;DHT22;39153;52.680;6.172;2023-04-25T09:34:51;8.90;99.90
53264;DHT22;39153;52.680;6.172;2023-04-25T09:37:28;9.10;99.90
53264;DHT22;39153;52.680;6.172;2023-04-25T09:39:55;9.20;99.90
53264;DHT22;39153;52.680;6.172;2023-04-25T09:42:23;9.30;99.90
53264;DHT22;39153;52.680;6.172;2023-04-25T09:44:51;9.50;99.90
53264;DHT22;39153;52.680;6.172;2023-04-25T09:47:17;9.60;99.90
53264;DHT22;39153;52.680;6.172;2023-04-25T09:49:44;9.60;99.90
53264;DHT22;39153;52.680;6.172;2023-04-25T09:52:14;9.70;99.90
53264;DHT22;39153;52.680;6.172;2023-04-25T09:54:41;9.70;99.90
53264;DHT22;39153;52.680;6.172;2023-04-25T09:59:39;9.80;99.90
53264;DHT22;39153;52.680;6.172;2023-04-25T10:02:08;10.00;99.90
53264;DHT22;39153;52.680;6.172;2023-04-25T10:04:35;10.00;99.90
53264;DHT22;39153;52.680;6.172;2023-04-25T10:07:04;10.10;99.90
53264;DHT22;39153;52.680;6.172;2023-04-25T10:09:32;10.20;99.90
53264;DHT22;39153;52.680;6.172;2023-04-25T10:11:59;10.20;99.90
53264;DHT22;39153;52.680;6.172;2023-04-25T10:14:26;10.40;99.90
53264;DHT22;39153;52.680;6.172;2023-04-25T10:16:52;10.60;99.90
53264;DHT22;39153;52.680;6.172;2023-04-25T10:19:20;10.60;99.90
53264;DHT22;39153;52.680;6.172;2023-04-25T10:21:52;10.70;99.90
53264;DHT22;39153;52.680;6.172;2023-04-25T10:24:19;10.70;99.90
53264;DHT22;39153;52.680;6.172;2023-04-25T10:26:46;10.50;99.90
53264;DHT22;39153;52.680;6.172;2023-04-25T10:29:12;9.90;99.90
53264;DHT22;39153;52.680;6.172;2023-04-25T10:31:46;9.30;99.90
53264;DHT22;39153;52.680;6.172;2023-04-25T10:34:13;8.80;99.90
53264;DHT22;39153;52.680;6.172;2023-04-25T10:36:39;8.60;99.90
53264;DHT22;39153;52.680;6.172;2023-04-25T10:39:05;8.50;99.90
53264;DHT22;39153;52.680;6.172;2023-04-25T10:41:45;8.50;99.90
53264;DHT22;39153;52.680;6.172;2023-04-25T10:44:13;8.60;99.90
53264;DHT22;39153;52.680;6.172;2023-04-25T10:46:39;8.70;99.90
53264;DHT22;39153;52.680;6.172;2023-04-25T10:49:08;8.70;99.90
53264;DHT22;39153;52.680;6.172;2023-04-25T10:51:36;8.80;99.90
53264;DHT22;39153;52.680;6.172;2023-04-25T10:54:02;8.80;99.90
53264;DHT22;39153;52.680;6.172;2023-04-25T11:04:29;8.80;99.90
53264;DHT22;39153;52.680;6.172;2023-04-25T11:09:30;9.10;99.90
53264;DHT22;39153;52.680;6.172;2023-04-25T11:11:57;9.40;99.90
53264;DHT22;39153;52.680;6.172;2023-04-25T11:14:24;9.70;99.90
53264;DHT22;39153;52.680;6.172;2023-04-25T11:16:57;9.90;99.90
53264;DHT22;39153;52.680;6.172;2023-04-25T11:19:24;10.10;99.90
53264;DHT22;39153;52.680;6.172;2023-04-25T11:21:50;10.40;99.90
53264;DHT22;39153;52.680;6.172;2023-04-25T11:24:16;10.60;99.90
53264;DHT22;39153;52.680;6.172;2023-04-25T11:26:43;10.60;99.90
53264;DHT22;39153;52.680;6.172;2023-04-25T11:29:09;10.50;99.90
53264;DHT22;39153;52.680;6.172;2023-04-25T11:31:35;10.60;99.90
53264;DHT22;39153;52.680;6.172;2023-04-25T11:34:00;10.70;99.90
53264;DHT22;39153;52.680;6.172;2023-04-25T11:36:26;10.90;99.90
53264;DHT22;39153;52.680;6.172;2023-04-25T11:38:53;11.10;99.90
53264;DHT22;39153;52.680;6.172;2023-04-25T11:41:20;11.30;99.90
53264;DHT22;39153;52.680;6.172;2023-04-25T11:43:45;11.50;99.90
53264;DHT22;39153;52.680;6.172;2023-04-25T11:46:11;11.50;99.90
53264;DHT22;39153;52.680;6.172;2023-04-25T11:48:38;11.60;99.90
53264;DHT22;39153;52.680;6.172;2023-04-25T11:51:04;11.60;99.90
53264;DHT22;39153;52.680;6.172;2023-04-25T11:53:30;11.60;99.90
53264;DHT22;39153;52.680;6.172;2023-04-25T11:55:56;11.60;99.90
53264;DHT22;39153;52.680;6.172;2023-04-25T11:58:22;11.60;99.90
53264;DHT22;39153;52.680;6.172;2023-04-25T12:00:48;11.50;99.90
53264;DHT22;39153;52.680;6.172;2023-04-25T12:03:14;10.90;99.90
53264;DHT22;39153;52.680;6.172;2023-04-25T12:05:40;10.10;99.90
53264;DHT22;39153;52.680;6.172;2023-04-25T12:08:15;9.20;99.90
53264;DHT22;39153;52.680;6.172;2023-04-25T12:10:43;8.60;99.90
53264;DHT22;39153;52.680;6.172;2023-04-25T12:13:23;8.40;99.90
53264;DHT22;39153;52.680;6.172;2023-04-25T12:15:49;8.30;99.90
53264;DHT22;39153;52.680;6.172;2023-04-25T12:18:18;8.30;99.90
53264;DHT22;39153;52.680;6.172;2023-04-25T12:20:44;8.30;99.90
53264;DHT22;39153;52.680;6.172;2023-04-25T12:23:10;8.40;99.90
53264;DHT22;39153;52.680;6.172;2023-04-25T12:25:40;8.50;99.90
53264;DHT22;39153;52.680;6.172;2023-04-25T12:28:19;8.80;99.90
53264;DHT22;39153;52.680;6.172;2023-04-25T12:30:58;9.00;99.90
53264;DHT22;39153;52.680;6.172;2023-04-25T12:33:29;9.40;99.90
53264;DHT22;39153;52.680;6.172;2023-04-25T12:35:56;9.50;99.90
53264;DHT22;39153;52.680;6.172;2023-04-25T12:38:27;9.70;99.90
53264;DHT22;39153;52.680;6.172;2023-04-25T12:40:54;10.10;99.90
53264;DHT22;39153;52.680;6.172;2023-04-25T12:43:22;10.50;99.90
53264;DHT22;39153;52.680;6.172;2023-04-25T12:45:57;10.70;99.90
53264;DHT22;39153;52.680;6.172;2023-04-25T12:48:23;10.70;99.90
53264;DHT22;39153;52.680;6.172;2023-04-25T12:50:50;10.60;99.90
53264;DHT22;39153;52.680;6.172;2023-04-25T12:55:43;10.80;99.90
53264;DHT22;39153;52.680;6.172;2023-04-25T12:58:11;10.90;99.90
53264;DHT22;39153;52.680;6.172;2023-04-25T13:00:37;10.80;99.90
53264;DHT22;39153;52.680;6.172;2023-04-25T13:03:03;10.90;99.90
53264;DHT22;39153;52.680;6.172;2023-04-25T13:05:30;11.20;99.90
53264;DHT22;39153;52.680;6.172;2023-04-25T13:07:56;11.50;99.90
53264;DHT22;39153;52.680;6.172;2023-04-25T13:10:22;11.80;99.90
53264;DHT22;39153;52.680;6.172;2023-04-25T13:12:48;11.90;99.90
53264;DHT22;39153;52.680;6.172;2023-04-25T13:15:13;12.00;99.90
53264;DHT22;39153;52.680;6.172;2023-04-25T13:17:41;11.60;99.90
53264;DHT22;39153;52.680;6.172;2023-04-25T13:20:08;11.20;99.90
53264;DHT22;39153;52.680;6.172;2023-04-25T13:22:38;11.00;99.90
53264;DHT22;39153;52.680;6.172;2023-04-25T13:25:06;11.10;99.90
53264;DHT22;39153;52.680;6.172;2023-04-25T13:27:33;11.50;99.90
53264;DHT22;39153;52.680;6.172;2023-04-25T13:30:03;11.80;99.90
53264;DHT22;39153;52.680;6.172;2023-04-25T13:32:36;11.80;99.90
53264;DHT22;39153;52.680;6.172;2023-04-25T13:35:03;11.60;99.90
53264;DHT22;39153;52.680;6.172;2023-04-25T13:37:30;11.50;99.90
53264;DHT22;39153;52.680;6.172;2023-04-25T13:39:59;11.50;99.90
53264;DHT22;39153;52.680;6.172;2023-04-25T13:42:25;11.80;99.90
53264;DHT22;39153;52.680;6.172;2023-04-25T13:44:51;11.90;99.90
53264;DHT22;39153;52.680;6.172;2023-04-25T13:47:17;12.00;99.90
53264;DHT22;39153;52.680;6.172;2023-04-25T13:49:43;12.20;99.90
53264;DHT22;39153;52.680;6.172;2023-04-25T13:52:08;12.10;99.90
53264;DHT22;39153;52.680;6.172;2023-04-25T13:54:34;11.90;99.90
53264;DHT22;39153;52.680;6.172;2023-04-25T13:57:00;11.50;99.90
53264;DHT22;39153;52.680;6.172;2023-04-25T13:59:27;11.20;99.90
53264;DHT22;39153;52.680;6.172;2023-04-25T14:01:52;10.90;99.90
53264;DHT22;39153;52.680;6.172;2023-04-25T14:04:18;10.70;99.90
53264;DHT22;39153;52.680;6.172;2023-04-25T14:06:44;10.50;99.90
53264;DHT22;39153;52.680;6.172;2023-04-25T14:09:11;10.60;99.90
53264;DHT22;39153;52.680;6.172;2023-04-25T14:11:39;10.80;99.90
53264;DHT22;39153;52.680;6.172;2023-04-25T14:14:04;11.10;99.90
53264;DHT22;39153;52.680;6.172;2023-04-25T14:16:30;11.20;99.90
53264;DHT22;39153;52.680;6.172;2023-04-25T14:18:59;11.30;99.90
53264;DHT22;39153;52.680;6.172;2023-04-25T14:21:26;11.20;99.90
53264;DHT22;39153;52.680;6.172;2023-04-25T14:23:52;11.10;99.90
53264;DHT22;39153;52.680;6.172;2023-04-25T14:26:18;10.80;99.90
53264;DHT22;39153;52.680;6.172;2023-04-25T14:28:44;10.60;99.90
53264;DHT22;39153;52.680;6.172;2023-04-25T14:31:09;10.70;99.90
53264;DHT22;39153;52.680;6.172;2023-04-25T14:33:35;11.00;99.90
53264;DHT22;39153;52.680;6.172;2023-04-25T14:36:02;11.50;99.90
53264;DHT22;39153;52.680;6.172;2023-04-25T14:38:28;12.10;99.90
53264;DHT22;39153;52.680;6.172;2023-04-25T14:40:54;12.50;99.90
53264;DHT22;39153;52.680;6.172;2023-04-25T14:43:20;12.90;99.90
53264;DHT22;39153;52.680;6.172;2023-04-25T14:45:45;13.10;99.90
53264;DHT22;39153;52.680;6.172;2023-04-25T14:48:11;12.70;99.90
53264;DHT22;39153;52.680;6.172;2023-04-25T14:50:37;12.30;99.90
53264;DHT22;39153;52.680;6.172;2023-04-25T14:53:03;11.80;99.90
53264;DHT22;39153;52.680;6.172;2023-04-25T14:55:28;11.10;99.90
53264;DHT22;39153;52.680;6.172;2023-04-25T14:57:54;10.30;99.90
53264;DHT22;39153;52.680;6.172;2023-04-25T15:00:21;9.40;99.90
53264;DHT22;39153;52.680;6.172;2023-04-25T15:02:48;8.80;99.90
53264;DHT22;39153;52.680;6.172;2023-04-25T15:05:14;8.60;99.90
53264;DHT22;39153;52.680;6.172;2023-04-25T15:07:40;8.70;99.90
53264;DHT22;39153;52.680;6.172;2023-04-25T15:10:09;9.00;99.90
53264;DHT22;39153;52.680;6.172;2023-04-25T15:12:41;9.50;99.90
53264;DHT22;39153;52.680;6.172;2023-04-25T15:15:08;10.20;99.90
53264;DHT22;39153;52.680;6.172;2023-04-25T15:17:43;10.80;99.90
53264;DHT22;39153;52.680;6.172;2023-04-25T15:20:11;11.20;99.90
53264;DHT22;39153;52.680;6.172;2023-04-25T15:22:38;11.60;99.90
53264;DHT22;39153;52.680;6.172;2023-04-25T15:25:04;11.80;99.90
53264;DHT22;39153;52.680;6.172;2023-04-25T15:27:30;11.80;99.90
53264;DHT22;39153;52.680;6.172;2023-04-25T15:29:56;11.90;99.90
53264;DHT22;39153;52.680;6.172;2023-04-25T15:32:21;12.10;99.90
53264;DHT22;39153;52.680;6.172;2023-04-25T15:34:48;12.20;99.90
53264;DHT22;39153;52.680;6.172;2023-04-25T15:37:15;12.20;99.90
53264;DHT22;39153;52.680;6.172;2023-04-25T15:39:41;12.40;99.90
53264;DHT22;39153;52.680;6.172;2023-04-25T15:42:07;12.50;99.90
53264;DHT22;39153;52.680;6.172;2023-04-25T15:44:33;12.40;99.90
53264;DHT22;39153;52.680;6.172;2023-04-25T15:46:58;12.40;99.90
53264;DHT22;39153;52.680;6.172;2023-04-25T15:49:24;12.40;99.90
53264;DHT22;39153;52.680;6.172;2023-04-25T15:51:50;12.20;99.90
53264;DHT22;39153;52.680;6.172;2023-04-25T15:54:17;12.10;99.90
53264;DHT22;39153;52.680;6.172;2023-04-25T15:56:43;11.70;99.90
53264;DHT22;39153;52.680;6.172;2023-04-25T15:59:10;11.20;99.90
53264;DHT22;39153;52.680;6.172;2023-04-25T16:01:36;10.90;99.90